Time;durP1;ratioP1;P1;durP2;ratioP2;P2;SDS_P1;SDS_P2;PMS_P1;PMS_P2;Temp;Humidity;BMP_temperature;BMP_pressure;BME280_temperature;BME280_humidity;BME280_pressure;Samples;Min_cycle;Max_cycle;Signal;HPM_P1;HPM_P2
2022/06/15 00:00:06;;;;;;;4.70;3.97;;;18.80;99.90;;;;;;4986372;28;20494;-70
2022/06/15 00:02:32;;;;;;;5.47;4.10;;;18.80;99.90;;;;;;4986925;28;20194;-69
2022/06/15 00:04:57;;;;;;;4.10;3.70;;;18.70;99.90;;;;;;4976598;28;20417;-69
2022/06/15 00:07:23;;;;;;;5.03;3.57;;;18.50;99.90;;;;;;4968180;28;20191;-68
2022/06/15 00:09:48;;;;;;;4.27;3.87;;;18.50;99.90;;;;;;4967462;28;20212;-69
2022/06/15 00:12:14;;;;;;;5.00;3.73;;;18.50;99.90;;;;;;4967484;28;20193;-67
2022/06/15 00:14:39;;;;;;;4.73;4.13;;;18.40;99.90;;;;;;4967781;28;20259;-69
2022/06/15 00:17:05;;;;;;;5.43;4.37;;;18.40;99.90;;;;;;4974889;28;20243;-70
2022/06/15 00:19:31;;;;;;;6.60;4.53;;;18.20;99.90;;;;;;4986688;28;20271;-69
2022/06/15 00:21:56;;;;;;;3.77;3.30;;;18.20;99.90;;;;;;4986337;28;20208;-68
2022/06/15 00:24:22;;;;;;;4.23;3.57;;;18.10;99.90;;;;;;4986408;28;20594;-69
2022/06/15 00:26:48;;;;;;;5.90;4.10;;;18.10;99.90;;;;;;4966832;28;20193;-68
2022/06/15 00:29:13;;;;;;;4.60;4.20;;;18.10;99.90;;;;;;4971594;28;20203;-69
2022/06/15 00:31:40;;;;;;;5.10;3.77;;;18.00;99.90;;;;;;4965666;28;20654;-71
2022/06/15 00:34:06;;;;;;;4.67;3.83;;;18.10;99.90;;;;;;4979241;28;20284;-69
2022/06/15 00:36:31;;;;;;;4.50;4.10;;;18.20;99.90;;;;;;4985879;28;20857;-70
2022/06/15 00:38:58;;;;;;;6.60;4.27;;;18.20;99.90;;;;;;4986074;28;20212;-69
2022/06/15 00:41:29;;;;;;;5.77;4.10;;;18.30;99.90;;;;;;4986009;28;20260;-70
2022/06/15 00:44:02;;;;;;;4.93;3.77;;;18.20;99.90;;;;;;4982105;28;20807;-69
2022/06/15 00:46:39;;;;;;;7.77;4.40;;;18.10;99.90;;;;;;4950848;28;20437;-68
2022/06/15 00:49:24;;;;;;;8.03;4.10;;;18.00;99.90;;;;;;4985863;28;20444;-69
2022/06/15 00:51:55;;;;;;;6.07;5.00;;;17.90;99.90;;;;;;4986113;28;20425;-69
2022/06/15 00:54:22;;;;;;;4.53;3.50;;;17.80;99.90;;;;;;4984650;28;20839;-70
2022/06/15 00:56:49;;;;;;;6.93;4.00;;;17.80;99.90;;;;;;4985382;28;20419;-69
2022/06/15 00:59:23;;;;;;;4.03;3.73;;;17.60;99.90;;;;;;4985334;28;20471;-69
2022/06/15 01:01:48;;;;;;;4.37;4.00;;;17.50;99.90;;;;;;4976952;28;20436;-67
2022/06/15 01:04:16;;;;;;;5.40;4.07;;;17.60;99.90;;;;;;4985368;28;21554;-68
2022/06/15 01:06:49;;;;;;;4.50;3.30;;;17.80;99.90;;;;;;4969176;28;20539;-69
2022/06/15 01:09:29;;;;;;;5.90;4.03;;;17.70;99.90;;;;;;4966339;28;20440;-69
2022/06/15 01:11:55;;;;;;;6.00;4.60;;;17.90;99.90;;;;;;4984978;28;20888;-69
2022/06/15 01:14:35;;;;;;;4.37;3.97;;;17.90;99.90;;;;;;4970425;28;20456;-70
2022/06/15 01:17:18;;;;;;;5.03;4.47;;;18.00;99.90;;;;;;4985905;28;20654;-70
2022/06/15 01:20:20;;;;;;;4.53;3.90;;;18.10;99.90;;;;;;4976414;28;20562;-69
2022/06/15 01:23:11;;;;;;;5.37;4.03;;;18.10;99.90;;;;;;4974583;28;20408;-69
2022/06/15 01:26:11;;;;;;;5.20;4.70;;;18.00;99.90;;;;;;4964587;28;20432;-69
2022/06/15 01:28:55;;;;;;;4.50;4.10;;;18.00;99.90;;;;;;4944480;28;20483;-70
2022/06/15 01:31:34;;;;;;;5.30;4.20;;;18.10;99.90;;;;;;4985189;28;20412;-68
2022/06/15 01:34:18;;;;;;;6.13;4.00;;;18.20;99.90;;;;;;4966327;28;20471;-68
2022/06/15 01:36:59;;;;;;;4.67;3.83;;;18.30;99.90;;;;;;4985152;28;20893;-69
2022/06/15 01:39:32;;;;;;;6.73;4.37;;;18.30;99.90;;;;;;4965672;28;21083;-69
2022/06/15 01:42:16;;;;;;;4.40;3.90;;;18.30;99.90;;;;;;4971034;28;20413;-68
2022/06/15 01:44:48;;;;;;;7.63;4.00;;;18.20;99.90;;;;;;4984230;28;20499;-68
2022/06/15 01:47:21;;;;;;;4.47;3.93;;;18.10;99.90;;;;;;4984877;28;20412;-70
2022/06/15 01:49:57;;;;;;;4.80;4.30;;;18.10;99.90;;;;;;4984518;28;20443;-67
2022/06/15 01:52:26;;;;;;;4.07;3.43;;;18.00;99.90;;;;;;4968224;28;20433;-69
2022/06/15 01:55:00;;;;;;;4.73;3.90;;;18.00;99.90;;;;;;4974501;28;20456;-69
2022/06/15 01:57:28;;;;;;;4.37;3.97;;;17.90;99.90;;;;;;4984548;28;20408;-68
2022/06/15 02:00:10;;;;;;;3.60;3.30;;;17.90;99.90;;;;;;4984278;28;20451;-67
2022/06/15 02:02:50;;;;;;;4.10;3.70;;;17.70;99.90;;;;;;4984718;28;20412;-68
2022/06/15 02:05:31;;;;;;;6.40;4.47;;;17.50;99.90;;;;;;4984723;28;20494;-69
2022/06/15 02:07:57;;;;;;;7.00;4.47;;;17.30;99.90;;;;;;4984730;28;20412;-68
2022/06/15 02:10:34;;;;;;;4.43;4.03;;;17.30;99.90;;;;;;4984570;28;20864;-68
2022/06/15 02:13:06;;;;;;;4.43;3.90;;;17.30;99.90;;;;;;4985002;28;20330;-67
2022/06/15 02:15:34;;;;;;;5.20;4.47;;;17.20;99.90;;;;;;4983552;28;20525;-67
2022/06/15 02:18:06;;;;;;;6.97;4.40;;;17.10;99.90;;;;;;4983615;28;20446;-69
2022/06/15 02:20:36;;;;;;;4.00;3.60;;;17.20;99.90;;;;;;4984639;28;20923;-69
2022/06/15 02:23:06;;;;;;;6.87;3.93;;;17.20;99.90;;;;;;4966819;28;20555;-69
2022/06/15 02:25:35;;;;;;;6.00;4.80;;;17.20;99.90;;;;;;4968684;28;20426;-67
2022/06/15 02:28:02;;;;;;;4.90;4.13;;;17.20;99.90;;;;;;4976028;28;20522;-69
2022/06/15 02:30:30;;;;;;;5.03;3.80;;;17.10;99.90;;;;;;4984314;28;20424;-69
2022/06/15 02:32:56;;;;;;;4.27;3.70;;;17.00;99.90;;;;;;4984156;28;20423;-68
2022/06/15 02:35:22;;;;;;;4.53;4.13;;;17.10;99.90;;;;;;4984134;28;20536;-69
2022/06/15 02:37:50;;;;;;;4.80;4.10;;;17.10;99.90;;;;;;4984179;28;20435;-68
2022/06/15 02:40:20;;;;;;;4.57;4.00;;;17.00;99.90;;;;;;4966611;28;20431;-68
2022/06/15 02:42:47;;;;;;;5.20;4.73;;;17.00;99.90;;;;;;4980209;28;20785;-68
2022/06/15 02:45:28;;;;;;;4.93;4.20;;;17.00;99.90;;;;;;4983724;28;20502;-70
2022/06/15 02:47:55;;;;;;;4.10;3.80;;;17.00;99.90;;;;;;4984128;28;20418;-69
2022/06/15 02:50:22;;;;;;;3.87;3.30;;;17.00;99.90;;;;;;4963581;28;20416;-70
2022/06/15 02:53:02;;;;;;;3.87;3.57;;;17.00;99.90;;;;;;4970651;28;20490;-68
2022/06/15 02:55:29;;;;;;;6.53;4.50;;;16.90;99.90;;;;;;4977419;28;20510;-68
2022/06/15 02:58:02;;;;;;;3.70;3.40;;;16.80;99.90;;;;;;4976782;28;20442;-67
2022/06/15 03:00:28;;;;;;;4.50;4.00;;;16.80;99.90;;;;;;4984087;28;20432;-68
2022/06/15 03:02:54;;;;;;;5.43;4.10;;;16.80;99.90;;;;;;4980364;28;20427;-68
2022/06/15 03:05:19;;;;;;;3.43;3.13;;;16.70;99.90;;;;;;4971949;28;20769;-68
2022/06/15 03:07:45;;;;;;;4.37;3.53;;;16.70;99.90;;;;;;4964523;28;20197;-67
2022/06/15 03:10:11;;;;;;;4.27;3.87;;;16.70;99.90;;;;;;4964617;28;20291;-68
2022/06/15 03:12:37;;;;;;;6.40;4.40;;;16.50;99.90;;;;;;4964480;28;20420;-69
2022/06/15 03:15:03;;;;;;;5.33;3.83;;;16.50;99.90;;;;;;4971327;28;20207;-69
2022/06/15 03:17:29;;;;;;;5.10;4.07;;;16.50;99.90;;;;;;4984009;28;20230;-69
2022/06/15 03:19:54;;;;;;;4.47;4.07;;;16.50;99.90;;;;;;4983795;28;20443;-69
2022/06/15 03:22:20;;;;;;;4.20;3.80;;;16.50;99.90;;;;;;4983952;28;20185;-68
2022/06/15 03:24:45;;;;;;;5.27;4.10;;;16.50;99.90;;;;;;4983887;28;20193;-69
2022/06/15 03:27:11;;;;;;;6.80;4.10;;;16.40;99.90;;;;;;4971601;28;20254;-69
2022/06/15 03:29:37;;;;;;;5.10;3.67;;;16.40;99.90;;;;;;4967200;28;20216;-70
2022/06/15 03:32:03;;;;;;;4.50;4.10;;;16.50;99.90;;;;;;4970267;28;20244;-69
2022/06/15 03:34:29;;;;;;;4.37;4.03;;;16.40;99.90;;;;;;4987043;28;20596;-69
2022/06/15 03:36:55;;;;;;;4.70;4.23;;;16.50;99.90;;;;;;4987346;28;20423;-70
2022/06/15 03:39:21;;;;;;;4.87;3.80;;;16.60;99.90;;;;;;4981306;28;20449;-68
2022/06/15 03:41:47;;;;;;;4.23;3.83;;;16.70;99.90;;;;;;4983066;28;20204;-68
2022/06/15 03:44:13;;;;;;;7.80;4.40;;;16.70;99.90;;;;;;4971684;28;20428;-68
2022/06/15 03:46:38;;;;;;;5.30;4.23;;;16.70;99.90;;;;;;4987186;28;20189;-70
2022/06/15 03:49:04;;;;;;;3.57;3.27;;;16.70;99.90;;;;;;4987048;28;20196;-69
2022/06/15 03:51:30;;;;;;;5.73;4.23;;;16.70;99.90;;;;;;4987033;28;20191;-69
2022/06/15 03:53:55;;;;;;;4.37;3.77;;;16.70;99.90;;;;;;4987469;28;20355;-68
2022/06/15 03:56:21;;;;;;;4.67;4.17;;;16.80;99.90;;;;;;4987063;28;20181;-68
2022/06/15 03:58:47;;;;;;;4.33;3.97;;;16.80;99.90;;;;;;4986526;28;20225;-68
2022/06/15 04:01:13;;;;;;;6.67;4.03;;;16.80;99.90;;;;;;4983577;28;20180;-68
2022/06/15 04:03:38;;;;;;;4.43;4.03;;;16.70;99.90;;;;;;4986924;28;20188;-69
2022/06/15 04:06:05;;;;;;;4.40;4.00;;;16.70;99.90;;;;;;4986622;28;20455;-69
2022/06/15 04:08:35;;;;;;;4.30;4.00;;;16.70;99.90;;;;;;4986555;28;20204;-68
2022/06/15 04:11:58;;;;;;;4.20;3.80;;;16.80;99.90;;;;;;4988038;28;21014;-69
2022/06/15 04:13:59;;;;;;;6.67;4.13;;;16.90;99.90;;;;;;4985958;28;20463;-68
2022/06/15 04:16:25;;;;;;;4.70;4.30;;;17.00;99.90;;;;;;4977928;28;20416;-68
2022/06/15 04:18:50;;;;;;;4.50;4.10;;;17.10;99.90;;;;;;4986129;28;20439;-69
2022/06/15 04:21:16;;;;;;;5.83;4.57;;;17.00;99.90;;;;;;4985852;28;20423;-69
2022/06/15 04:23:41;;;;;;;5.10;4.40;;;17.00;99.90;;;;;;4986353;28;20181;-69
2022/06/15 04:26:09;;;;;;;4.43;4.00;;;17.10;99.90;;;;;;4986401;28;20279;-69
2022/06/15 04:28:39;;;;;;;4.67;4.27;;;17.10;99.90;;;;;;4978943;28;20197;-68
2022/06/15 04:31:05;;;;;;;6.07;4.90;;;17.00;99.90;;;;;;4986639;28;20518;-70
2022/06/15 04:33:31;;;;;;;5.20;4.63;;;17.10;99.90;;;;;;4986197;28;20467;-71
2022/06/15 04:35:57;;;;;;;4.77;3.67;;;17.00;99.90;;;;;;4986378;28;20177;-69
2022/06/15 04:38:24;;;;;;;4.80;4.00;;;17.10;99.90;;;;;;4986074;28;20781;-69
2022/06/15 04:40:50;;;;;;;6.43;4.93;;;17.10;99.90;;;;;;4985309;28;20419;-70
2022/06/15 04:43:15;;;;;;;5.83;4.50;;;17.00;99.90;;;;;;4969113;28;20417;-69
2022/06/15 04:45:41;;;;;;;5.13;4.37;;;16.90;99.90;;;;;;4983765;28;20436;-71
2022/06/15 04:48:09;;;;;;;4.50;4.10;;;16.90;99.90;;;;;;4985832;28;20200;-70
2022/06/15 04:50:35;;;;;;;5.10;4.47;;;17.00;99.90;;;;;;4985803;28;20188;-71
2022/06/15 04:53:02;;;;;;;5.20;4.40;;;17.00;99.90;;;;;;4985904;28;20741;-70
2022/06/15 04:55:29;;;;;;;5.17;4.60;;;17.10;99.90;;;;;;4979078;28;20641;-70
2022/06/15 04:57:57;;;;;;;6.53;4.50;;;17.20;99.90;;;;;;4966151;28;20415;-68
2022/06/15 05:00:24;;;;;;;5.60;4.97;;;17.20;99.90;;;;;;4985085;28;20408;-69
2022/06/15 05:02:50;;;;;;;5.00;4.60;;;17.30;99.90;;;;;;4985616;28;20415;-69
2022/06/15 05:05:16;;;;;;;7.17;5.03;;;17.40;99.90;;;;;;4985417;28;20416;-71
2022/06/15 05:07:42;;;;;;;4.90;4.40;;;17.50;99.90;;;;;;4985609;28;20251;-69
2022/06/15 05:10:13;;;;;;;5.00;4.60;;;17.60;99.90;;;;;;4985075;28;20196;-70
2022/06/15 05:12:39;;;;;;;6.30;4.17;;;17.80;99.90;;;;;;4985454;28;20407;-69
2022/06/15 05:15:05;;;;;;;6.70;4.20;;;17.90;99.90;;;;;;4985083;28;21492;-69
2022/06/15 05:17:31;;;;;;;4.70;4.20;;;18.10;99.90;;;;;;4985862;28;20471;-68
2022/06/15 05:19:57;;;;;;;4.33;3.93;;;18.20;99.90;;;;;;4985319;28;21030;-68
2022/06/15 05:22:22;;;;;;;5.07;4.20;;;18.40;99.90;;;;;;4985562;28;20674;-69
2022/06/15 05:24:48;;;;;;;5.20;4.20;;;18.60;99.90;;;;;;4985438;28;20456;-70
2022/06/15 05:27:13;;;;;;;4.53;4.13;;;18.70;99.90;;;;;;4966717;28;20560;-71
2022/06/15 05:29:39;;;;;;;5.73;4.20;;;18.90;99.90;;;;;;4977277;28;20199;-70
2022/06/15 05:32:06;;;;;;;4.77;4.33;;;19.10;99.90;;;;;;4985489;28;20185;-68
2022/06/15 05:34:33;;;;;;;6.77;4.43;;;19.20;99.90;;;;;;4967581;28;20213;-70
2022/06/15 05:36:59;;;;;;;6.03;4.40;;;19.30;99.90;;;;;;4967363;28;20428;-69
2022/06/15 05:39:24;;;;;;;5.73;3.87;;;19.40;99.90;;;;;;4985248;28;20438;-70
2022/06/15 05:41:50;;;;;;;4.40;3.90;;;19.50;99.90;;;;;;4985067;28;20181;-70
2022/06/15 05:47:04;;;;;;;4.80;4.40;;;19.70;99.90;;;;;;4985181;28;20230;-70
2022/06/15 05:49:31;;;;;;;5.00;4.50;;;19.80;99.90;;;;;;4976635;28;20491;-70
2022/06/15 05:51:56;;;;;;;4.80;4.03;;;19.90;99.90;;;;;;4984760;28;20427;-69
2022/06/15 05:54:22;;;;;;;5.60;4.33;;;20.10;99.90;;;;;;4984731;28;20876;-69
2022/06/15 05:56:48;;;;;;;5.00;3.90;;;20.20;99.90;;;;;;4972375;28;20200;-71
2022/06/15 05:59:14;;;;;;;6.27;5.10;;;20.30;99.90;;;;;;4955535;28;20221;-68
2022/06/15 06:01:40;;;;;;;4.80;4.13;;;20.60;99.90;;;;;;4984612;28;20185;-67
2022/06/15 06:04:07;;;;;;;6.43;4.10;;;20.70;99.90;;;;;;4984887;28;20566;-70
2022/06/15 06:06:33;;;;;;;7.77;4.40;;;20.70;99.90;;;;;;4984435;28;20478;-71
2022/06/15 06:08:59;;;;;;;5.10;4.03;;;20.90;99.90;;;;;;4984394;28;20869;-72
2022/06/15 06:11:25;;;;;;;5.20;4.70;;;21.00;99.90;;;;;;4984883;28;20424;-70
2022/06/15 06:13:52;;;;;;;4.93;3.57;;;21.00;99.90;;;;;;4983813;28;20517;-69
2022/06/15 06:16:18;;;;;;;4.90;4.17;;;21.10;99.90;;;;;;4984792;28;20247;-71
2022/06/15 06:18:44;;;;;;;4.30;3.97;;;21.30;99.90;;;;;;4984450;28;20436;-70
2022/06/15 06:21:10;;;;;;;5.70;5.10;;;21.50;99.90;;;;;;4984471;28;20784;-69
2022/06/15 06:23:37;;;;;;;4.47;4.07;;;21.60;99.90;;;;;;4984743;28;20419;-69
2022/06/15 06:26:03;;;;;;;6.83;4.80;;;21.70;99.90;;;;;;4984668;28;20428;-70
2022/06/15 06:28:35;;;;;;;6.10;4.87;;;21.90;99.90;;;;;;4984627;28;20805;-70
2022/06/15 06:31:03;;;;;;;5.77;5.17;;;22.00;99.90;;;;;;4978189;28;20628;-69
2022/06/15 06:33:31;;;;;;;7.27;4.70;;;21.70;99.90;;;;;;4984877;28;20426;-69
2022/06/15 06:35:58;;;;;;;11.77;6.17;;;21.80;99.90;;;;;;4984473;28;20518;-69
2022/06/15 06:38:25;;;;;;;11.13;5.87;;;21.70;99.90;;;;;;4984029;28;20428;-70
2022/06/15 06:40:53;;;;;;;7.33;5.87;;;21.70;99.90;;;;;;4984601;28;20423;-67
2022/06/15 06:43:19;;;;;;;12.70;6.10;;;21.60;99.90;;;;;;4984341;28;20439;-69
2022/06/15 06:45:44;;;;;;;9.57;6.30;;;21.90;99.90;;;;;;4983640;28;20467;-71
2022/06/15 06:48:10;;;;;;;6.77;5.57;;;22.00;99.90;;;;;;4984271;28;20303;-71
2022/06/15 06:50:39;;;;;;;7.30;5.70;;;22.00;99.90;;;;;;4984014;28;20262;-69
2022/06/15 06:53:05;;;;;;;11.80;6.17;;;22.20;99.90;;;;;;4981217;28;20303;-68
2022/06/15 06:55:30;;;;;;;8.23;5.37;;;22.30;99.90;;;;;;4964965;28;20452;-70
2022/06/15 06:57:57;;;;;;;6.47;5.20;;;22.50;99.90;;;;;;4983964;28;20467;-70
2022/06/15 07:00:24;;;;;;;5.90;4.90;;;22.40;99.90;;;;;;4983875;28;20236;-68
2022/06/15 07:02:50;;;;;;;4.40;3.97;;;22.20;99.90;;;;;;4985172;28;20446;-70
2022/06/15 07:05:16;;;;;;;5.43;4.80;;;22.20;99.90;;;;;;4987806;28;20473;-67
2022/06/15 07:07:42;;;;;;;6.97;5.07;;;22.00;99.90;;;;;;4987961;28;21400;-68
2022/06/15 07:10:08;;;;;;;5.10;4.30;;;22.00;99.90;;;;;;4988018;28;20205;-70
2022/06/15 07:12:36;;;;;;;6.73;4.60;;;22.30;99.80;;;;;;4987997;28;20510;-72
2022/06/15 07:15:03;;;;;;;4.60;4.10;;;22.40;99.90;;;;;;4987133;28;20459;-71
2022/06/15 07:17:28;;;;;;;4.30;3.90;;;22.70;98.90;;;;;;4987460;28;20420;-69
2022/06/15 07:19:55;;;;;;;4.10;3.70;;;22.60;98.40;;;;;;4988005;28;20462;-72
2022/06/15 07:22:20;;;;;;;4.73;4.10;;;22.60;98.60;;;;;;4968178;28;20220;-70
2022/06/15 07:24:46;;;;;;;4.20;3.70;;;22.80;98.30;;;;;;4987423;28;20744;-70
2022/06/15 07:27:13;;;;;;;4.70;3.30;;;22.90;97.80;;;;;;4979921;28;20215;-70
2022/06/15 07:29:38;;;;;;;4.50;3.80;;;23.00;97.20;;;;;;4983811;28;20255;-69
2022/06/15 07:32:05;;;;;;;7.23;3.67;;;23.00;97.20;;;;;;4968971;28;20424;-70
2022/06/15 07:34:31;;;;;;;5.83;3.80;;;23.10;97.30;;;;;;4986913;28;20224;-69
2022/06/15 07:36:56;;;;;;;4.73;3.67;;;23.10;97.50;;;;;;4987438;28;21488;-69
2022/06/15 07:39:27;;;;;;;6.40;4.13;;;23.20;97.30;;;;;;4987360;28;20603;-70
2022/06/15 07:41:54;;;;;;;6.37;3.83;;;23.30;97.60;;;;;;4982455;28;20244;-71
2022/06/15 07:44:22;;;;;;;4.57;3.17;;;23.30;97.40;;;;;;4975903;28;20780;-71
2022/06/15 07:46:48;;;;;;;7.47;4.13;;;23.40;97.10;;;;;;4986834;28;20904;-72
2022/06/15 07:52:03;;;;;;;5.30;4.30;;;23.50;97.10;;;;;;4972838;28;20408;-71
2022/06/15 07:54:29;;;;;;;5.37;3.80;;;23.60;97.10;;;;;;4986968;28;20454;-71
2022/06/15 07:56:56;;;;;;;4.70;3.90;;;23.80;96.50;;;;;;4973160;28;20405;-71
2022/06/15 07:59:22;;;;;;;7.63;4.00;;;23.60;97.30;;;;;;4981703;28;20591;-71
2022/06/15 08:01:49;;;;;;;5.17;3.63;;;23.60;97.10;;;;;;4986361;28;21643;-71
2022/06/15 08:04:16;;;;;;;6.73;3.87;;;23.60;96.50;;;;;;4985343;28;20475;-70
2022/06/15 08:06:45;;;;;;;5.80;4.60;;;23.60;97.10;;;;;;4977156;28;20423;-71
2022/06/15 08:09:13;;;;;;;4.73;4.00;;;23.90;97.30;;;;;;4986556;28;20453;-70
2022/06/15 08:12:11;;;;;;;4.73;3.60;;;23.90;96.90;;;;;;4986715;28;20459;-70
2022/06/15 08:14:26;;;;;;;5.83;3.80;;;23.90;96.40;;;;;;4985329;28;20467;-71
2022/06/15 08:16:52;;;;;;;5.10;3.70;;;24.20;96.60;;;;;;4986241;28;20498;-73
2022/06/15 08:19:17;;;;;;;4.40;4.00;;;24.40;96.10;;;;;;4986438;28;20291;-73
2022/06/15 08:21:43;;;;;;;5.93;4.10;;;24.50;96.20;;;;;;4986623;28;20180;-71
2022/06/15 08:24:08;;;;;;;7.57;4.10;;;24.50;96.20;;;;;;4982659;28;20192;-69
2022/06/15 08:26:37;;;;;;;6.00;4.10;;;24.60;96.40;;;;;;4969481;28;20197;-69
2022/06/15 08:29:08;;;;;;;6.13;3.60;;;24.80;96.20;;;;;;4976392;28;20299;-70
2022/06/15 08:31:35;;;;;;;5.53;3.33;;;24.80;96.40;;;;;;4986187;28;20491;-70
2022/06/15 08:34:03;;;;;;;5.47;3.73;;;24.70;95.50;;;;;;4972301;28;20471;-69
2022/06/15 08:36:30;;;;;;;6.13;3.83;;;24.90;95.30;;;;;;4986391;28;20503;-70
2022/06/15 08:38:56;;;;;;;4.47;3.90;;;24.90;95.20;;;;;;4972927;28;20813;-70
2022/06/15 08:42:01;;;;;;;5.20;3.80;;;25.00;96.10;;;;;;4986440;28;20416;-70
2022/06/15 08:44:26;;;;;;;5.13;4.30;;;25.20;95.50;;;;;;4973271;28;20424;-70
2022/06/15 08:47:02;;;;;;;5.97;4.27;;;25.20;95.30;;;;;;4985788;28;20420;-70
2022/06/15 08:49:46;;;;;;;4.33;3.73;;;25.30;94.90;;;;;;4984580;28;20626;-71
2022/06/15 08:52:17;;;;;;;5.00;3.73;;;25.10;94.50;;;;;;4967168;28;20446;-70
2022/06/15 08:55:05;;;;;;;5.57;4.30;;;25.30;94.80;;;;;;4985839;28;20463;-69
2022/06/15 08:57:43;;;;;;;8.00;4.70;;;25.50;94.50;;;;;;4986313;28;20442;-70
2022/06/15 09:00:33;;;;;;;6.70;3.83;;;25.50;94.00;;;;;;4986799;28;20546;-69
2022/06/15 09:03:22;;;;;;;5.37;3.67;;;25.70;94.20;;;;;;4964847;28;20472;-70
2022/06/15 09:06:15;;;;;;;6.47;4.23;;;25.70;94.00;;;;;;4975672;28;20490;-71
2022/06/15 09:09:09;;;;;;;8.33;4.30;;;25.80;94.20;;;;;;4984607;28;20463;-72
2022/06/15 09:15:20;;;;;;;6.40;4.20;;;25.80;94.20;;;;;;4985435;28;21018;-72
2022/06/15 09:17:48;;;;;;;8.20;4.87;;;25.60;93.70;;;;;;4967575;28;20416;-71
2022/06/15 09:20:20;;;;;;;5.70;4.77;;;25.50;93.40;;;;;;4983867;28;20849;-70
2022/06/15 09:22:55;;;;;;;8.10;4.00;;;25.50;93.70;;;;;;4985364;28;20435;-72
2022/06/15 09:25:32;;;;;;;5.97;4.30;;;25.70;93.50;;;;;;4967403;28;20416;-70
2022/06/15 09:28:07;;;;;;;8.33;4.30;;;25.90;93.90;;;;;;4971654;28;20420;-73
2022/06/15 09:30:38;;;;;;;5.80;4.43;;;26.00;93.60;;;;;;4984593;28;20407;-73
2022/06/15 09:33:11;;;;;;;7.23;4.80;;;26.30;94.10;;;;;;4969552;28;20409;-71
2022/06/15 09:35:41;;;;;;;5.53;4.57;;;26.60;93.00;;;;;;4984906;28;20478;-73
2022/06/15 09:38:11;;;;;;;5.10;3.70;;;26.60;92.40;;;;;;4971121;28;20483;-70
2022/06/15 09:40:50;;;;;;;7.97;4.70;;;26.60;92.60;;;;;;4980331;28;20413;-70
2022/06/15 09:43:35;;;;;;;4.50;4.03;;;26.60;92.80;;;;;;4985124;28;20415;-72
2022/06/15 09:46:13;;;;;;;6.40;4.23;;;26.90;91.90;;;;;;4983497;28;20427;-73
2022/06/15 09:48:57;;;;;;;6.23;4.63;;;27.00;91.30;;;;;;4969856;28;20441;-71
2022/06/15 09:51:33;;;;;;;6.00;3.87;;;27.00;90.40;;;;;;4967852;28;20868;-68
2022/06/15 09:54:05;;;;;;;5.57;4.17;;;26.80;90.60;;;;;;4984512;28;20408;-73
2022/06/15 09:56:32;;;;;;;4.60;3.83;;;26.80;90.40;;;;;;4981107;28;20408;-70
2022/06/15 09:59:03;;;;;;;4.60;3.80;;;27.00;89.40;;;;;;4968316;28;20469;-69
2022/06/15 10:01:34;;;;;;;4.50;3.60;;;27.10;87.90;;;;;;4982891;28;20466;-70
2022/06/15 10:04:03;;;;;;;4.13;3.60;;;27.20;89.80;;;;;;4984977;28;20510;-71
2022/06/15 10:06:39;;;;;;;6.53;4.13;;;27.50;86.20;;;;;;4984600;28;20412;-71
2022/06/15 10:09:09;;;;;;;5.30;3.63;;;27.60;85.60;;;;;;4984807;28;20423;-70
2022/06/15 10:14:50;;;;;;;6.63;4.17;;;27.60;83.40;;;;;;4984089;28;21582;-69
2022/06/15 10:17:30;;;;;;;4.37;3.87;;;27.80;83.70;;;;;;4970018;28;21041;-72
2022/06/15 10:19:57;;;;;;;7.47;3.80;;;27.80;83.50;;;;;;4984315;28;20435;-70
2022/06/15 10:22:38;;;;;;;4.90;4.10;;;27.70;83.80;;;;;;4984085;28;20435;-71
2022/06/15 10:25:05;;;;;;;4.10;3.70;;;27.90;83.60;;;;;;4984475;28;20430;-71
2022/06/15 10:27:39;;;;;;;4.13;3.73;;;27.50;81.80;;;;;;4984511;28;20423;-71
2022/06/15 10:30:07;;;;;;;4.23;3.80;;;27.40;82.30;;;;;;4983861;28;20467;-70
2022/06/15 10:32:37;;;;;;;5.73;4.10;;;27.40;83.40;;;;;;4984340;28;20485;-70
2022/06/15 10:35:03;;;;;;;5.00;4.60;;;27.70;82.80;;;;;;4984764;28;20832;-70
2022/06/15 10:37:47;;;;;;;4.70;4.30;;;28.00;81.40;;;;;;4977443;28;20412;-68
2022/06/15 10:40:34;;;;;;;4.63;4.00;;;28.00;81.30;;;;;;4988529;28;20177;-71
2022/06/15 10:43:14;;;;;;;5.50;4.17;;;28.10;79.80;;;;;;4988348;28;20781;-70
2022/06/15 10:46:02;;;;;;;5.67;4.00;;;27.90;79.70;;;;;;4988052;28;20426;-70
2022/06/15 10:48:31;;;;;;;6.23;3.33;;;27.80;78.90;;;;;;4988456;28;20821;-70
2022/06/15 10:51:12;;;;;;;4.67;3.30;;;28.00;78.70;;;;;;4988075;28;20431;-71
2022/06/15 10:53:51;;;;;;;3.67;3.37;;;28.10;76.90;;;;;;4983632;28;20408;-70
2022/06/15 11:02:37;;;;;;;4.67;3.50;;;28.40;74.50;;;;;;4949472;28;20503;-70
2022/06/15 11:05:08;;;;;;;3.77;3.47;;;28.70;74.60;;;;;;4982750;28;20396;-70
2022/06/15 11:07:47;;;;;;;5.87;3.73;;;28.90;73.60;;;;;;4987786;28;20461;-69
2022/06/15 11:10:32;;;;;;;5.53;3.87;;;28.80;72.80;;;;;;4988371;28;20415;-70
2022/06/15 11:13:24;;;;;;;4.00;3.30;;;28.70;73.40;;;;;;4988184;28;20420;-71
2022/06/15 11:18:41;;;;;;;6.73;4.00;;;29.20;74.80;;;;;;4987499;28;20435;-72
2022/06/15 11:21:27;;;;;;;5.80;3.60;;;29.60;73.10;;;;;;4988102;28;20411;-71
2022/06/15 11:24:11;;;;;;;5.20;3.47;;;29.70;71.00;;;;;;4968369;28;20956;-71
2022/06/15 11:26:56;;;;;;;5.93;4.13;;;29.70;74.30;;;;;;4972858;28;20416;-71
2022/06/15 11:29:45;;;;;;;6.40;3.43;;;30.10;71.60;;;;;;4972742;28;20432;-73
2022/06/15 11:32:32;;;;;;;6.10;3.27;;;30.70;70.60;;;;;;4985948;28;20415;-71
2022/06/15 11:35:03;;;;;;;6.50;3.60;;;31.80;64.90;;;;;;4987173;28;20903;-71
2022/06/15 11:37:41;;;;;;;6.87;3.77;;;32.80;62.60;;;;;;4983876;28;20447;-71
2022/06/15 11:40:14;;;;;;;4.33;3.13;;;34.10;60.30;;;;;;4987053;28;20840;-71
2022/06/15 11:42:40;;;;;;;5.73;3.40;;;33.70;58.30;;;;;;4983023;28;20492;-71
2022/06/15 11:45:13;;;;;;;4.20;3.30;;;34.80;58.10;;;;;;4967946;28;20594;-73
2022/06/15 11:47:57;;;;;;;5.83;2.90;;;34.40;54.50;;;;;;4986603;28;20176;-73
2022/06/15 11:50:46;;;;;;;3.70;3.40;;;34.80;54.60;;;;;;4987073;28;20434;-71
2022/06/15 11:53:16;;;;;;;4.70;3.07;;;36.10;51.30;;;;;;4986932;28;20411;-72
2022/06/15 11:55:52;;;;;;;4.23;2.93;;;34.00;52.80;;;;;;4987033;28;20451;-71
2022/06/15 11:58:44;;;;;;;4.10;3.20;;;34.70;52.40;;;;;;4986958;28;20661;-73
2022/06/15 12:01:09;;;;;;;7.50;3.03;;;36.50;48.80;;;;;;4986634;28;20777;-73
2022/06/15 12:04:08;;;;;;;7.33;3.57;;;37.30;47.20;;;;;;4986586;28;20424;-71
2022/06/15 12:06:54;;;;;;;3.13;2.80;;;37.20;46.00;;;;;;4986100;28;20168;-73
2022/06/15 12:09:53;;;;;;;3.43;2.60;;;38.70;44.30;;;;;;4986854;28;20438;-72
2022/06/15 12:12:39;;;;;;;4.80;2.43;;;37.00;44.20;;;;;;4991257;23;20871;-71
2022/06/15 12:15:12;;;;;;;3.60;2.73;;;38.00;45.30;;;;;;4967201;28;20460;-71
2022/06/15 12:17:46;;;;;;;3.83;2.47;;;39.50;41.10;;;;;;4967426;28;20435;-71
2022/06/15 12:20:46;;;;;;;2.50;2.30;;;39.80;40.30;;;;;;4967049;28;20425;-71
2022/06/15 12:23:40;;;;;;;3.97;2.47;;;38.50;41.40;;;;;;4976849;28;20937;-70
2022/06/15 12:26:18;;;;;;;3.10;2.70;;;39.00;41.20;;;;;;4971647;28;20409;-71
2022/06/15 12:29:06;;;;;;;3.03;2.70;;;39.20;39.70;;;;;;4967888;28;20396;-72
2022/06/15 12:31:52;;;;;;;3.43;2.53;;;38.90;39.30;;;;;;4968402;28;21019;-71
2022/06/15 12:34:48;;;;;;;4.77;2.80;;;37.90;40.00;;;;;;4967200;28;20522;-70
2022/06/15 12:37:28;;;;;;;7.03;2.37;;;38.90;41.20;;;;;;4984100;28;20414;-71
2022/06/15 12:40:26;;;;;;;3.17;2.50;;;39.80;39.60;;;;;;4986245;28;20413;-70
2022/06/15 12:43:10;;;;;;;3.10;2.40;;;39.50;38.10;;;;;;4986302;28;20431;-70
2022/06/15 12:45:42;;;;;;;2.53;2.33;;;38.00;38.60;;;;;;4971163;28;20435;-71
2022/06/15 12:48:53;;;;;;;3.80;2.43;;;39.00;38.90;;;;;;4966868;28;20411;-70
2022/06/15 12:51:44;;;;;;;3.20;2.60;;;38.80;38.20;;;;;;4967040;28;20407;-71
2022/06/15 12:54:49;;;;;;;4.43;2.73;;;39.50;37.70;;;;;;4966621;28;20448;-71
2022/06/15 12:57:27;;;;;;;3.03;2.70;;;37.80;39.10;;;;;;4969103;28;20888;-71
2022/06/15 13:00:13;;;;;;;2.60;2.40;;;37.30;39.60;;;;;;4985279;28;20414;-71
2022/06/15 13:03:02;;;;;;;2.80;2.20;;;38.50;39.10;;;;;;4985549;28;20434;-70
2022/06/15 13:05:35;;;;;;;4.50;3.23;;;38.70;39.20;;;;;;4980086;28;20713;-69
2022/06/15 13:08:16;;;;;;;2.83;2.33;;;38.80;38.20;;;;;;4966537;28;20411;-71
2022/06/15 13:10:53;;;;;;;2.80;2.57;;;37.80;40.00;;;;;;4966163;28;20527;-70
2022/06/15 13:13:36;;;;;;;4.50;2.90;;;37.60;40.80;;;;;;4966076;28;20475;-70
2022/06/15 13:16:08;;;;;;;4.23;3.83;;;38.70;39.30;;;;;;4965669;28;20487;-70
2022/06/15 13:18:39;;;;;;;3.37;2.00;;;38.80;39.00;;;;;;4966109;28;20889;-69
2022/06/15 13:21:06;;;;;;;3.47;2.50;;;39.20;38.60;;;;;;4967682;28;20852;-71
2022/06/15 13:23:41;;;;;;;4.90;2.90;;;38.90;37.20;;;;;;4985499;28;20446;-71
2022/06/15 13:26:23;;;;;;;2.90;2.67;;;38.60;37.90;;;;;;4968966;28;20476;-72
2022/06/15 13:28:58;;;;;;;2.80;2.50;;;39.80;37.60;;;;;;4973738;28;20419;-69
2022/06/15 13:31:57;;;;;;;4.53;2.40;;;40.20;36.30;;;;;;4981601;28;21391;-71